createdAt,value
2016-07-05T00:00:44.401Z,1000.29
2016-07-05T00:01:44.420Z,1000.29
2016-07-05T00:02:44.393Z,1000.26
2016-07-05T00:03:44.462Z,1000.27
2016-07-05T00:04:44.464Z,1000.23
2016-07-05T00:05:44.446Z,1000.27
2016-07-05T00:06:44.251Z,1000.26
2016-07-05T00:07:44.494Z,1000.28
2016-07-05T00:08:44.507Z,1000.28
2016-07-05T00:09:44.576Z,1000.26
2016-07-05T00:10:44.437Z,1000.27
2016-07-05T00:11:44.564Z,1000.25
2016-07-05T00:12:44.588Z,1000.23
2016-07-05T00:13:44.486Z,1000.25
2016-07-05T00:14:44.680Z,1000.25
2016-07-05T00:15:44.698Z,1000.25
2016-07-05T00:16:44.588Z,1000.28
2016-07-05T00:17:44.691Z,1000.29
2016-07-05T00:18:44.750Z,1000.27
2016-07-05T00:19:44.720Z,1000.29
2016-07-05T00:20:44.746Z,1000.26
2016-07-05T00:21:44.757Z,1000.25
2016-07-05T00:22:44.585Z,1000.26
2016-07-05T00:23:44.792Z,1000.24
2016-07-05T00:24:44.866Z,1000.19
2016-07-05T00:25:44.825Z,1000.2
2016-07-05T00:26:44.720Z,1000.23
2016-07-05T00:27:44.552Z,1000.2
2016-07-05T00:28:43.077Z,1000.2
2016-07-05T00:29:44.914Z,1000.21
2016-07-05T00:30:44.720Z,1000.21
2016-07-05T00:31:44.647Z,1000.17
2016-07-05T00:32:44.870Z,1000.16
2016-07-05T00:33:44.766Z,1000.12
2016-07-05T00:34:44.700Z,1000.12
2016-07-05T00:35:44.122Z,1000.09
2016-07-05T00:36:43.489Z,1000.08
2016-07-05T00:37:43.856Z,1000.09
2016-07-05T00:38:42.775Z,1000.1
2016-07-05T00:39:42.796Z,1000.07
2016-07-05T00:40:42.813Z,1000.05
2016-07-05T00:41:43.065Z,1000.07
2016-07-05T00:42:43.185Z,1000.05
2016-07-05T00:43:43.234Z,1000.01
2016-07-05T00:44:43.148Z,999.98
2016-07-05T00:45:42.910Z,999.99
2016-07-05T00:46:42.932Z,1000
2016-07-05T00:47:42.951Z,999.99
2016-07-05T00:48:43.442Z,999.97
2016-07-05T00:49:42.990Z,999.98
2016-07-05T00:50:43.503Z,999.94
2016-07-05T00:51:43.390Z,999.97
2016-07-05T00:52:43.607Z,999.94
2016-07-05T00:53:43.115Z,999.94
2016-07-05T00:54:52.675Z,999.9
2016-07-05T00:56:11.045Z,999.96
2016-07-05T00:57:02.895Z,999.91
2016-07-05T00:58:02.616Z,999.9
2016-07-05T00:59:02.589Z,999.86
2016-07-05T01:00:12.663Z,999.85
2016-07-05T01:01:48.678Z,999.85
2016-07-05T01:02:39.063Z,999.85
2016-07-05T01:03:45.846Z,999.82
2016-07-05T01:04:38.895Z,999.82
2016-07-05T01:05:38.914Z,999.85
2016-07-05T01:06:38.932Z,999.87
2016-07-05T01:07:38.949Z,999.85
2016-07-05T01:08:38.968Z,999.84
2016-07-05T01:09:38.986Z,999.87
2016-07-05T01:10:39.003Z,999.83
2016-07-05T01:11:39.026Z,999.79
2016-07-05T01:12:39.052Z,999.81
2016-07-05T01:13:39.067Z,999.79
2016-07-05T01:14:39.087Z,999.79
2016-07-05T01:15:39.104Z,999.75
2016-07-05T01:16:39.126Z,999.73
2016-07-05T01:17:39.148Z,999.72
2016-07-05T01:18:39.163Z,999.68
2016-07-05T01:19:39.187Z,999.67
2016-07-05T01:20:39.206Z,999.67
2016-07-05T01:21:39.222Z,999.6
2016-07-05T01:22:39.236Z,999.63
2016-07-05T01:23:39.259Z,999.62
2016-07-05T01:24:39.280Z,999.55
2016-07-05T01:25:39.294Z,999.55
2016-07-05T01:26:39.317Z,999.57
2016-07-05T01:27:39.338Z,999.53
2016-07-05T01:28:39.354Z,999.53
2016-07-05T01:29:39.375Z,999.51
2016-07-05T01:30:39.397Z,999.47
2016-07-05T01:31:39.411Z,999.46
2016-07-05T01:32:39.434Z,999.44
2016-07-05T01:33:39.448Z,999.45
2016-07-05T01:34:39.471Z,999.44
2016-07-05T01:35:39.491Z,999.48
2016-07-05T01:36:39.513Z,999.42
2016-07-05T01:37:39.533Z,999.44
2016-07-05T01:38:39.551Z,999.43
2016-07-05T01:39:39.571Z,999.4
2016-07-05T01:40:39.590Z,999.38
2016-07-05T01:41:39.611Z,999.4
2016-07-05T01:42:39.628Z,999.41
2016-07-05T01:43:39.652Z,999.35
2016-07-05T01:44:39.665Z,999.31
2016-07-05T01:45:39.681Z,999.34
2016-07-05T01:46:39.707Z,999.29
2016-07-05T01:47:39.726Z,999.29
2016-07-05T01:48:39.746Z,999.3
2016-07-05T01:49:39.762Z,999.28
2016-07-05T01:50:39.781Z,999.29
2016-07-05T01:51:39.801Z,999.26
2016-07-05T01:52:39.824Z,999.25
2016-07-05T01:53:39.843Z,999.27
2016-07-05T01:54:39.862Z,999.26
2016-07-05T01:55:39.881Z,999.27
2016-07-05T01:56:39.902Z,999.25
2016-07-05T01:57:39.921Z,999.22
2016-07-05T01:58:39.937Z,999.2
2016-07-05T01:59:39.962Z,999.21
2016-07-05T02:00:40.045Z,999.19
2016-07-05T02:01:40.030Z,999.18
2016-07-05T02:02:40.052Z,999.13
2016-07-05T02:03:40.099Z,999.13
2016-07-05T02:04:40.118Z,999.13
2016-07-05T02:05:40.076Z,999.11
2016-07-05T02:06:40.094Z,999.1
2016-07-05T02:07:40.179Z,999.15
2016-07-05T02:08:40.133Z,999.09
2016-07-05T02:09:40.150Z,999.09
2016-07-05T02:10:40.177Z,999.09
2016-07-05T02:11:40.197Z,999.12
2016-07-05T02:12:40.212Z,999.07
2016-07-05T02:13:40.234Z,999.06
2016-07-05T02:14:40.252Z,999.02
2016-07-05T02:15:40.274Z,999
2016-07-05T02:16:40.289Z,999.01
2016-07-05T02:17:40.314Z,999
2016-07-05T02:18:40.333Z,998.98
2016-07-05T02:19:40.352Z,998.98
2016-07-05T02:20:40.371Z,998.96
2016-07-05T02:21:40.392Z,998.95
2016-07-05T02:22:40.410Z,998.96
2016-07-05T02:23:40.427Z,998.91
2016-07-05T02:24:40.454Z,998.9
2016-07-05T02:25:40.473Z,998.89
2016-07-05T02:26:40.488Z,998.89
2016-07-05T02:27:40.506Z,998.87
2016-07-05T02:28:40.526Z,998.89
2016-07-05T02:29:40.544Z,998.85
2016-07-05T02:30:40.568Z,998.86
2016-07-05T02:31:40.590Z,998.84
2016-07-05T02:32:40.609Z,998.79
2016-07-05T02:33:40.625Z,998.81
2016-07-05T02:34:40.649Z,998.83
2016-07-05T02:35:40.665Z,998.83
2016-07-05T02:36:40.687Z,998.83
2016-07-05T02:37:40.705Z,998.8
2016-07-05T02:38:40.724Z,998.8
2016-07-05T02:39:40.742Z,998.81
2016-07-05T02:40:40.765Z,998.72
2016-07-05T02:41:40.784Z,998.73
2016-07-05T02:42:40.804Z,998.76
2016-07-05T02:43:40.825Z,998.74
2016-07-05T02:44:40.848Z,998.75
2016-07-05T02:45:40.863Z,998.79
2016-07-05T02:46:40.882Z,998.74
2016-07-05T02:47:40.904Z,998.78
2016-07-05T02:48:40.921Z,998.73
2016-07-05T02:49:40.940Z,998.75
2016-07-05T02:50:40.962Z,998.7
2016-07-05T02:51:40.982Z,998.71
2016-07-05T02:52:41.002Z,998.73
2016-07-05T02:53:41.023Z,998.73
2016-07-05T02:54:41.043Z,998.73
2016-07-05T02:55:41.064Z,998.71
2016-07-05T02:56:41.079Z,998.75
2016-07-05T02:57:41.099Z,998.69
2016-07-05T02:58:41.119Z,998.68
2016-07-05T02:59:41.136Z,998.67
2016-07-05T03:00:41.159Z,998.66
2016-07-05T03:01:41.183Z,998.68
2016-07-05T03:02:41.199Z,998.67
2016-07-05T03:03:41.222Z,998.69
2016-07-05T03:04:41.241Z,998.7
2016-07-05T03:05:41.256Z,998.73
2016-07-05T03:06:41.274Z,998.73
2016-07-05T03:07:41.295Z,998.71
2016-07-05T03:08:41.311Z,998.73
2016-07-05T03:09:41.332Z,998.7
2016-07-05T03:10:41.354Z,998.73
2016-07-05T03:11:41.372Z,998.72
2016-07-05T03:12:41.397Z,998.72
2016-07-05T03:13:41.415Z,998.75
2016-07-05T03:14:41.433Z,998.72
2016-07-05T03:15:41.451Z,998.71
2016-07-05T03:16:41.473Z,998.68
2016-07-05T03:17:41.486Z,998.71
2016-07-05T03:18:41.512Z,998.65
2016-07-05T03:19:41.532Z,998.69
2016-07-05T03:20:41.555Z,998.7
2016-07-05T03:21:41.569Z,998.73
2016-07-05T03:22:41.586Z,998.68
2016-07-05T03:23:41.614Z,998.72
2016-07-05T03:24:41.627Z,998.72
2016-07-05T03:25:41.652Z,998.73
2016-07-05T03:26:41.668Z,998.66
2016-07-05T03:27:41.691Z,998.68
2016-07-05T03:28:41.705Z,998.7
2016-07-05T03:29:41.726Z,998.66
2016-07-05T03:30:41.748Z,998.71
2016-07-05T03:31:41.769Z,998.66
2016-07-05T03:32:41.784Z,998.67
2016-07-05T03:33:41.804Z,998.67
2016-07-05T03:34:41.826Z,998.61
2016-07-05T03:35:41.846Z,998.63
2016-07-05T03:36:41.862Z,998.61
2016-07-05T03:37:41.887Z,998.66
2016-07-05T03:38:41.903Z,998.62
2016-07-05T03:39:41.920Z,998.6
2016-07-05T03:40:41.940Z,998.59
2016-07-05T03:41:41.961Z,998.62
2016-07-05T03:42:41.985Z,998.61
2016-07-05T03:43:42.003Z,998.61
2016-07-05T03:44:42.023Z,998.57
2016-07-05T03:45:42.044Z,998.58
2016-07-05T03:46:42.061Z,998.6
2016-07-05T03:47:42.081Z,998.57
2016-07-05T03:48:42.106Z,998.54
2016-07-05T03:49:42.126Z,998.55
2016-07-05T03:50:42.143Z,998.57
2016-07-05T03:51:42.158Z,998.61
2016-07-05T03:52:42.183Z,998.64
2016-07-05T03:53:42.200Z,998.62
2016-07-05T03:54:42.222Z,998.61
2016-07-05T03:55:42.243Z,998.61
2016-07-05T03:56:42.259Z,998.58
2016-07-05T03:57:42.287Z,998.62
2016-07-05T03:58:42.302Z,998.6
2016-07-05T03:59:42.324Z,998.58
2016-07-05T04:00:42.336Z,998.58
2016-07-05T04:01:42.360Z,998.57
2016-07-05T04:02:42.378Z,998.55
2016-07-05T04:03:42.397Z,998.5
2016-07-05T04:04:42.419Z,998.53
2016-07-05T04:05:42.434Z,998.52
2016-07-05T04:06:42.460Z,998.47
2016-07-05T04:07:42.478Z,998.48
2016-07-05T04:08:42.499Z,998.49
2016-07-05T04:09:42.520Z,998.47
2016-07-05T04:10:42.535Z,998.49
2016-07-05T04:11:42.555Z,998.45
2016-07-05T04:12:42.574Z,998.45
2016-07-05T04:13:42.598Z,998.45
2016-07-05T04:14:42.620Z,998.44
2016-07-05T04:15:42.638Z,998.41
2016-07-05T04:16:42.658Z,998.37
2016-07-05T04:17:42.679Z,998.39
2016-07-05T04:18:42.698Z,998.34
2016-07-05T04:19:42.721Z,998.38
2016-07-05T04:20:42.738Z,998.35
2016-07-05T04:21:42.758Z,998.33
2016-07-05T04:22:42.779Z,998.36
2016-07-05T04:23:42.800Z,998.32
2016-07-05T04:24:42.818Z,998.36
2016-07-05T04:25:42.842Z,998.35
2016-07-05T04:26:42.859Z,998.35
2016-07-05T04:27:42.876Z,998.34
2016-07-05T04:28:42.898Z,998.31
2016-07-05T04:29:42.921Z,998.3
2016-07-05T04:30:42.983Z,998.31
2016-07-05T04:31:42.956Z,998.31
2016-07-05T04:32:42.978Z,998.29
2016-07-05T04:33:42.996Z,998.29
2016-07-05T04:34:43.018Z,998.28
2016-07-05T04:35:43.037Z,998.29
2016-07-05T04:36:43.055Z,998.29
2016-07-05T04:37:43.081Z,998.28
2016-07-05T04:38:43.101Z,998.28
2016-07-05T04:39:43.118Z,998.31
2016-07-05T04:40:43.141Z,998.26
2016-07-05T04:41:43.156Z,998.29
2016-07-05T04:42:43.179Z,998.27
2016-07-05T04:43:43.200Z,998.29
2016-07-05T04:44:43.219Z,998.29
2016-07-05T04:45:43.240Z,998.27
2016-07-05T04:46:43.261Z,998.29
2016-07-05T04:47:43.279Z,998.28
2016-07-05T04:48:43.296Z,998.23
2016-07-05T04:49:43.315Z,998.26
2016-07-05T04:50:43.337Z,998.22
2016-07-05T04:51:43.354Z,998.19
2016-07-05T04:52:43.378Z,998.19
2016-07-05T04:53:43.398Z,998.2
2016-07-05T04:54:43.411Z,998.19
2016-07-05T04:55:43.437Z,998.2
2016-07-05T04:56:43.458Z,998.17
2016-07-05T04:57:43.479Z,998.17
2016-07-05T04:58:43.496Z,998.16
2016-07-05T04:59:43.519Z,998.18
2016-07-05T05:00:43.537Z,998.16
2016-07-05T05:01:43.560Z,998.14
2016-07-05T05:02:43.580Z,998.12
2016-07-05T05:03:43.605Z,998.14
2016-07-05T05:04:43.620Z,998.16
2016-07-05T05:05:43.639Z,998.15
2016-07-05T05:06:43.660Z,998.14
2016-07-05T05:07:43.682Z,998.16
2016-07-05T05:08:43.701Z,998.15
2016-07-05T05:09:43.721Z,998.14
2016-07-05T05:10:43.743Z,998.17
2016-07-05T05:11:43.760Z,998.17
2016-07-05T05:12:43.782Z,998.17
2016-07-05T05:13:43.805Z,998.13
2016-07-05T05:14:43.828Z,998.2
2016-07-05T05:15:43.840Z,998.16
2016-07-05T05:16:43.865Z,998.16
2016-07-05T05:17:43.887Z,998.18
2016-07-05T05:18:43.903Z,998.23
2016-07-05T05:19:43.924Z,998.2
2016-07-05T05:20:43.942Z,998.19
2016-07-05T05:21:43.971Z,998.25
2016-07-05T05:22:43.986Z,998.24
2016-07-05T05:23:44.008Z,998.22
2016-07-05T05:24:44.032Z,998.24
2016-07-05T05:25:44.053Z,998.23
2016-07-05T05:26:44.072Z,998.24
2016-07-05T05:27:44.092Z,998.25
2016-07-05T05:28:44.114Z,998.28
2016-07-05T05:29:44.135Z,998.3
2016-07-05T05:30:44.150Z,998.3
2016-07-05T05:31:44.173Z,998.29
2016-07-05T05:32:44.190Z,998.33
2016-07-05T05:33:44.210Z,998.3
2016-07-05T05:34:44.236Z,998.3
2016-07-05T05:35:44.260Z,998.32
2016-07-05T05:36:44.273Z,998.28
2016-07-05T05:37:44.291Z,998.27
2016-07-05T05:38:44.331Z,998.29
2016-07-05T05:39:44.336Z,998.27
2016-07-05T05:40:44.359Z,998.33
2016-07-05T05:41:44.380Z,998.26
2016-07-05T05:42:44.400Z,998.31
2016-07-05T05:43:44.422Z,998.26
2016-07-05T05:44:44.442Z,998.25
2016-07-05T05:45:44.464Z,998.28
2016-07-05T05:46:44.486Z,998.24
2016-07-05T05:47:44.507Z,998.26
2016-07-05T05:48:44.524Z,998.26
2016-07-05T05:49:44.553Z,998.23
2016-07-05T05:50:44.573Z,998.26
2016-07-05T05:51:44.594Z,998.22
2016-07-05T05:52:44.613Z,998.27
2016-07-05T05:53:44.635Z,998.27
2016-07-05T05:54:44.655Z,998.28
2016-07-05T05:55:44.673Z,998.27
2016-07-05T05:56:44.699Z,998.3
2016-07-05T05:57:44.719Z,998.3
2016-07-05T05:58:44.742Z,998.24
2016-07-05T05:59:44.762Z,998.3
2016-07-05T06:00:44.779Z,998.27
2016-07-05T06:01:44.799Z,998.26
2016-07-05T06:02:44.826Z,998.26
2016-07-05T06:03:44.843Z,998.26
2016-07-05T06:04:44.868Z,998.24
2016-07-05T06:05:44.888Z,998.26
2016-07-05T06:06:44.907Z,998.26
2016-07-05T06:07:44.929Z,998.2
2016-07-05T06:08:44.951Z,998.19
2016-07-05T06:09:44.974Z,998.26
2016-07-05T06:10:44.994Z,998.23
2016-07-05T06:11:45.012Z,998.28
2016-07-05T06:12:45.034Z,998.25
2016-07-05T06:13:45.051Z,998.29
2016-07-05T06:14:45.077Z,998.28
2016-07-05T06:15:45.119Z,998.28
2016-07-05T06:16:45.156Z,998.27
2016-07-05T06:17:45.142Z,998.3
2016-07-05T06:18:45.162Z,998.24
2016-07-05T06:19:45.186Z,998.26
2016-07-05T06:20:45.206Z,998.25
2016-07-05T06:21:45.232Z,998.24
2016-07-05T06:22:45.253Z,998.35
2016-07-05T06:23:45.269Z,998.24
2016-07-05T06:24:45.292Z,998.3
2016-07-05T06:25:45.310Z,998.24
2016-07-05T06:26:45.331Z,998.27
2016-07-05T06:27:45.363Z,998.26
2016-07-05T06:28:45.369Z,998.26
2016-07-05T06:29:45.392Z,998.33
2016-07-05T06:30:45.415Z,998.35
2016-07-05T06:31:45.432Z,998.37
2016-07-05T06:32:45.454Z,998.31
2016-07-05T06:33:45.475Z,998.36
2016-07-05T06:34:45.497Z,998.42
2016-07-05T06:35:45.515Z,998.36
2016-07-05T06:36:45.539Z,998.42
2016-07-05T06:37:45.560Z,998.41
2016-07-05T06:38:45.581Z,998.46
2016-07-05T06:39:45.598Z,998.45
2016-07-05T06:40:45.622Z,998.43
2016-07-05T06:41:45.640Z,998.41
2016-07-05T06:42:45.663Z,998.5
2016-07-05T06:43:45.683Z,998.48
2016-07-05T06:44:45.706Z,998.48
2016-07-05T06:45:45.728Z,998.44
2016-07-05T06:46:45.745Z,998.54
2016-07-05T06:47:45.768Z,998.48
2016-07-05T06:48:45.790Z,998.48
2016-07-05T06:49:45.812Z,998.42
2016-07-05T06:50:45.833Z,998.48
2016-07-05T06:51:45.854Z,998.49
2016-07-05T06:52:45.874Z,998.48
2016-07-05T06:53:45.897Z,998.48
2016-07-05T06:54:45.916Z,998.45
2016-07-05T06:55:45.949Z,998.49
2016-07-05T06:56:45.960Z,998.44
2016-07-05T06:57:45.985Z,998.42
2016-07-05T06:58:46.000Z,998.47
2016-07-05T06:59:46.026Z,998.48
2016-07-05T07:00:46.043Z,998.51
2016-07-05T07:01:46.066Z,998.57
2016-07-05T07:02:46.091Z,998.54
2016-07-05T07:03:46.110Z,998.58
2016-07-05T07:04:46.129Z,998.59
2016-07-05T07:05:46.158Z,998.64
2016-07-05T07:06:46.175Z,998.6
2016-07-05T07:07:46.229Z,998.6
2016-07-05T07:08:46.214Z,998.61
2016-07-05T07:09:46.277Z,998.54
2016-07-05T07:10:46.261Z,998.57
2016-07-05T07:11:46.355Z,998.59
2016-07-05T07:12:46.301Z,998.64
2016-07-05T07:13:46.361Z,998.58
2016-07-05T07:14:46.348Z,998.61
2016-07-05T07:15:46.390Z,998.62
2016-07-05T07:16:46.386Z,998.61
2016-07-05T07:17:46.474Z,998.53
2016-07-05T07:18:46.432Z,998.52
2016-07-05T07:19:46.455Z,998.5
2016-07-05T07:20:46.473Z,998.48
2016-07-05T07:21:46.495Z,998.55
2016-07-05T07:22:46.517Z,998.56
2016-07-05T07:23:46.536Z,998.54
2016-07-05T07:24:46.557Z,998.57
2016-07-05T07:25:46.580Z,998.63
2016-07-05T07:26:46.603Z,998.6
2016-07-05T07:27:46.622Z,998.62
2016-07-05T07:28:46.645Z,998.67
2016-07-05T07:29:46.670Z,998.63
2016-07-05T07:30:46.689Z,998.6
2016-07-05T07:31:46.715Z,998.58
2016-07-05T07:32:46.730Z,998.53
2016-07-05T07:33:46.755Z,998.57
2016-07-05T07:34:46.775Z,998.55
2016-07-05T07:35:46.797Z,998.56
2016-07-05T07:36:46.819Z,998.64
2016-07-05T07:37:46.845Z,998.7
2016-07-05T07:38:46.869Z,998.67
2016-07-05T07:39:46.888Z,998.65
2016-07-05T07:40:46.906Z,998.62
2016-07-05T07:41:46.938Z,998.55
2016-07-05T07:42:46.958Z,998.57
2016-07-05T07:43:46.977Z,998.56
2016-07-05T07:44:47.005Z,998.58
2016-07-05T07:45:47.024Z,998.53
2016-07-05T07:46:47.045Z,998.52
2016-07-05T07:47:47.066Z,998.63
2016-07-05T07:48:47.085Z,998.63
2016-07-05T07:49:47.110Z,998.66
2016-07-05T07:50:47.126Z,998.62
2016-07-05T07:51:47.155Z,998.62
2016-07-05T07:52:47.175Z,998.62
2016-07-05T07:53:47.201Z,998.65
2016-07-05T07:54:47.215Z,998.65
2016-07-05T07:55:47.240Z,998.67
2016-07-05T07:56:47.267Z,998.67
2016-07-05T07:57:47.288Z,998.62
2016-07-05T07:58:47.309Z,998.64
2016-07-05T07:59:47.329Z,998.62
2016-07-05T08:00:47.353Z,998.56
2016-07-05T08:01:47.370Z,998.62
2016-07-05T08:02:47.398Z,998.59
2016-07-05T08:03:47.418Z,998.6
2016-07-05T08:04:47.437Z,998.66
2016-07-05T08:05:47.461Z,998.63
2016-07-05T08:06:47.486Z,998.69
2016-07-05T08:07:47.504Z,998.81
2016-07-05T08:08:47.525Z,998.76
2016-07-05T08:09:47.546Z,998.82
2016-07-05T08:10:47.570Z,998.82
2016-07-05T08:11:47.591Z,998.83
2016-07-05T08:12:47.612Z,998.84
2016-07-05T08:13:47.633Z,998.81
2016-07-05T08:14:47.659Z,998.85
2016-07-05T08:15:47.682Z,998.85
2016-07-05T08:16:47.697Z,998.87
2016-07-05T08:17:47.717Z,998.87
2016-07-05T08:18:47.743Z,998.87
2016-07-05T08:19:47.765Z,998.9
2016-07-05T08:20:47.788Z,998.89
2016-07-05T08:21:47.812Z,998.89
2016-07-05T08:22:47.831Z,998.89
2016-07-05T08:23:47.854Z,998.96
2016-07-05T08:24:47.872Z,998.96
2016-07-05T08:25:47.901Z,998.88
2016-07-05T08:26:47.922Z,998.89
2016-07-05T08:27:47.943Z,998.91
2016-07-05T08:28:47.964Z,998.91
2016-07-05T08:29:47.989Z,998.87
2016-07-05T08:30:48.011Z,998.92
2016-07-05T08:31:48.031Z,998.85
2016-07-05T08:32:48.055Z,998.87
2016-07-05T08:33:48.077Z,998.84
2016-07-05T08:34:48.098Z,998.87
2016-07-05T08:35:48.123Z,998.78
2016-07-05T08:36:48.159Z,998.79
2016-07-05T08:37:48.169Z,998.81
2016-07-05T08:38:48.188Z,998.74
2016-07-05T08:39:48.209Z,998.7
2016-07-05T08:40:48.235Z,998.8
2016-07-05T08:41:48.266Z,998.83
2016-07-05T08:42:48.287Z,998.81
2016-07-05T08:43:48.305Z,998.82
2016-07-05T08:44:48.326Z,998.79
2016-07-05T08:45:48.350Z,998.68
2016-07-05T08:46:48.369Z,998.66
2016-07-05T08:47:48.395Z,998.72
2016-07-05T08:48:48.420Z,998.65
2016-07-05T08:49:48.434Z,998.77
2016-07-05T08:50:48.462Z,998.78
2016-07-05T08:51:48.492Z,998.85
2016-07-05T08:52:48.505Z,998.84
2016-07-05T08:53:48.531Z,998.83
2016-07-05T08:54:48.552Z,998.82
2016-07-05T08:55:48.575Z,998.82
2016-07-05T08:56:48.596Z,998.76
2016-07-05T08:57:48.620Z,998.82
2016-07-05T08:58:48.644Z,998.77
2016-07-05T08:59:48.662Z,998.84
2016-07-05T09:00:48.689Z,998.8
2016-07-05T09:01:48.712Z,998.8
2016-07-05T09:02:48.734Z,998.77
2016-07-05T09:03:48.757Z,998.69
2016-07-05T09:04:48.777Z,998.67
2016-07-05T09:05:48.806Z,998.62
2016-07-05T09:06:48.844Z,998.56
2016-07-05T09:07:48.856Z,998.6
2016-07-05T09:08:48.874Z,998.54
2016-07-05T09:09:48.903Z,998.55
2016-07-05T09:10:48.920Z,998.65
2016-07-05T09:11:48.940Z,998.58
2016-07-05T09:12:48.962Z,998.61
2016-07-05T09:13:48.989Z,998.58
2016-07-05T09:14:49.009Z,998.5
2016-07-05T09:15:49.040Z,998.47
2016-07-05T09:16:49.048Z,998.44
2016-07-05T09:17:49.074Z,998.42
2016-07-05T09:18:49.098Z,998.5
2016-07-05T09:19:49.118Z,998.51
2016-07-05T09:20:49.142Z,998.54
2016-07-05T09:21:49.164Z,998.53
2016-07-05T09:22:49.185Z,998.59
2016-07-05T09:23:49.209Z,998.66
2016-07-05T09:24:49.233Z,998.69
2016-07-05T09:25:49.254Z,998.65
2016-07-05T09:26:49.276Z,998.64
2016-07-05T09:27:49.295Z,998.64
2016-07-05T09:28:49.321Z,998.62
2016-07-05T09:29:49.345Z,998.64
2016-07-05T09:30:49.364Z,998.59
2016-07-05T09:31:49.391Z,998.6
2016-07-05T09:32:49.411Z,998.62
2016-07-05T09:33:49.434Z,998.53
2016-07-05T09:34:49.463Z,998.51
2016-07-05T09:35:49.480Z,998.47
2016-07-05T09:36:49.501Z,998.45
2016-07-05T09:37:49.520Z,998.56
2016-07-05T09:38:49.547Z,998.59
2016-07-05T09:39:49.570Z,998.64
2016-07-05T09:40:49.593Z,998.54
2016-07-05T09:41:49.610Z,998.43
2016-07-05T09:42:49.638Z,998.35
2016-07-05T09:43:49.663Z,998.3
2016-07-05T09:44:49.684Z,998.24
2016-07-05T09:45:49.705Z,998.18
2016-07-05T09:46:49.730Z,998.2
2016-07-05T09:47:49.751Z,998.17
2016-07-05T09:48:49.776Z,998.19
2016-07-05T09:49:49.790Z,998.19
2016-07-05T09:50:49.819Z,998.23
2016-07-05T09:51:49.842Z,998.32
2016-07-05T09:52:49.864Z,998.34
2016-07-05T09:53:49.884Z,998.36
2016-07-05T09:54:49.910Z,998.35
2016-07-05T09:55:49.929Z,998.42
2016-07-05T09:56:49.949Z,998.46
2016-07-05T09:57:49.978Z,998.54
2016-07-05T09:58:49.993Z,998.58
2016-07-05T09:59:50.018Z,998.64
2016-07-05T10:00:50.047Z,998.69
2016-07-05T10:01:50.070Z,998.63
2016-07-05T10:02:50.088Z,998.69
2016-07-05T10:03:50.112Z,998.64
2016-07-05T10:04:50.127Z,998.63
2016-07-05T10:05:50.154Z,998.63
2016-07-05T10:06:50.177Z,998.6
2016-07-05T10:07:50.202Z,998.61
2016-07-05T10:08:50.220Z,998.63
2016-07-05T10:09:50.246Z,998.61
2016-07-05T10:10:50.269Z,998.58
2016-07-05T10:11:50.292Z,998.54
2016-07-05T10:12:50.318Z,998.55
2016-07-05T10:13:50.339Z,998.53
2016-07-05T10:14:50.360Z,998.5
2016-07-05T10:15:50.384Z,998.4
2016-07-05T10:16:50.411Z,998.43
2016-07-05T10:17:50.433Z,998.49
2016-07-05T10:18:50.454Z,998.39
2016-07-05T10:19:50.474Z,998.38
2016-07-05T10:20:50.502Z,998.39
2016-07-05T10:21:50.522Z,998.41
2016-07-05T10:22:50.549Z,998.34
2016-07-05T10:23:50.571Z,998.37
2016-07-05T10:24:50.595Z,998.34
2016-07-05T10:25:50.615Z,998.39
2016-07-05T10:26:50.636Z,998.44
2016-07-05T10:27:50.661Z,998.48
2016-07-05T10:28:50.680Z,998.51
2016-07-05T10:29:50.707Z,998.48
2016-07-05T10:30:50.733Z,998.54
2016-07-05T10:31:50.754Z,998.65
2016-07-05T10:32:50.779Z,998.59
2016-07-05T10:33:50.798Z,998.5
2016-07-05T10:34:50.826Z,998.48
2016-07-05T10:35:50.843Z,998.48
2016-07-05T10:36:50.870Z,998.48
2016-07-05T10:37:50.891Z,998.47
2016-07-05T10:38:50.916Z,998.41
2016-07-05T10:39:50.938Z,998.48
2016-07-05T10:40:50.966Z,998.38
2016-07-05T10:41:50.990Z,998.49
2016-07-05T10:42:51.009Z,998.53
2016-07-05T10:43:51.032Z,998.49
2016-07-05T10:44:51.057Z,998.46
2016-07-05T10:45:51.079Z,998.54
2016-07-05T10:46:51.103Z,998.51
2016-07-05T10:47:51.124Z,998.46
2016-07-05T10:48:51.154Z,998.48
2016-07-05T10:49:51.173Z,998.57
2016-07-05T10:50:51.195Z,998.46
2016-07-05T10:51:51.222Z,998.49
2016-07-05T10:52:51.244Z,998.5
2016-07-05T10:53:51.266Z,998.51
2016-07-05T10:54:51.293Z,998.5
2016-07-05T10:55:51.317Z,998.5
2016-07-05T10:56:51.338Z,998.45
2016-07-05T10:57:51.364Z,998.44
2016-07-05T10:58:51.388Z,998.5
2016-07-05T10:59:51.411Z,998.45
2016-07-05T11:00:51.437Z,998.39
2016-07-05T11:01:51.454Z,998.42
2016-07-05T11:02:51.480Z,998.31
2016-07-05T11:03:51.507Z,998.38
2016-07-05T11:04:51.529Z,998.26
2016-07-05T11:05:51.553Z,998.33
2016-07-05T11:06:51.580Z,998.44
2016-07-05T11:07:51.602Z,998.42
2016-07-05T11:08:51.627Z,998.47
2016-07-05T11:09:51.648Z,998.42
2016-07-05T11:10:51.673Z,998.42
2016-07-05T11:11:51.696Z,998.43
2016-07-05T11:12:51.719Z,998.34
2016-07-05T11:13:51.741Z,998.28
2016-07-05T11:14:51.769Z,998.27
2016-07-05T11:15:51.791Z,998.34
2016-07-05T11:16:51.816Z,998.24
2016-07-05T11:17:51.836Z,998.15
2016-07-05T11:18:51.864Z,998.23
2016-07-05T11:19:51.883Z,998.16
2016-07-05T11:20:51.907Z,998.15
2016-07-05T11:21:51.932Z,998.21
2016-07-05T11:22:51.958Z,998.32
2016-07-05T11:23:51.977Z,998.27
2016-07-05T11:24:52.000Z,998.38
2016-07-05T11:25:52.027Z,998.43
2016-07-05T11:26:52.047Z,998.41
2016-07-05T11:27:52.066Z,998.46
2016-07-05T11:28:52.094Z,998.39
2016-07-05T11:29:52.119Z,998.4
2016-07-05T11:30:52.142Z,998.38
2016-07-05T11:31:52.166Z,998.39
2016-07-05T11:32:52.187Z,998.34
2016-07-05T11:33:52.214Z,998.36
2016-07-05T11:34:52.237Z,998.39
2016-07-05T11:35:52.259Z,998.37
2016-07-05T11:36:52.287Z,998.47
2016-07-05T11:37:52.303Z,998.45
2016-07-05T11:38:52.332Z,998.35
2016-07-05T11:39:52.357Z,998.34
2016-07-05T11:40:52.381Z,998.42
2016-07-05T11:41:52.401Z,998.4
2016-07-05T11:42:52.427Z,998.43
2016-07-05T11:43:52.452Z,998.39
2016-07-05T11:44:52.471Z,998.37
2016-07-05T11:45:52.496Z,998.29
2016-07-05T11:46:52.527Z,998.19
2016-07-05T11:47:52.549Z,998.23
2016-07-05T11:48:52.569Z,998.25
2016-07-05T11:49:52.594Z,998.32
2016-07-05T11:50:52.623Z,998.4
2016-07-05T11:51:52.641Z,998.45
2016-07-05T11:52:52.665Z,998.43
2016-07-05T11:53:52.689Z,998.4
2016-07-05T11:54:52.710Z,998.45
2016-07-05T11:55:52.736Z,998.41
2016-07-05T11:56:52.756Z,998.35
2016-07-05T11:57:52.781Z,998.35
2016-07-05T11:58:52.804Z,998.27
2016-07-05T11:59:52.827Z,998.29
2016-07-05T12:00:52.853Z,998.22
2016-07-05T12:01:52.866Z,998.22
2016-07-05T12:02:52.895Z,998.2
2016-07-05T12:03:52.918Z,998.24
2016-07-05T12:04:52.941Z,998.3
2016-07-05T12:05:52.960Z,998.34
2016-07-05T12:06:52.993Z,998.44
2016-07-05T12:07:53.012Z,998.44
2016-07-05T12:08:53.029Z,998.44
2016-07-05T12:09:53.057Z,998.41
2016-07-05T12:10:53.084Z,998.43
2016-07-05T12:11:53.105Z,998.42
2016-07-05T12:12:53.130Z,998.38
2016-07-05T12:13:53.152Z,998.44
2016-07-05T12:14:53.174Z,998.38
2016-07-05T12:15:53.196Z,998.39
2016-07-05T12:16:53.219Z,998.4
2016-07-05T12:17:53.252Z,998.38
2016-07-05T12:18:53.263Z,998.42
2016-07-05T12:19:53.288Z,998.34
2016-07-05T12:20:53.312Z,998.45
2016-07-05T12:21:53.338Z,998.4
2016-07-05T12:22:53.355Z,998.36
2016-07-05T12:23:53.383Z,998.28
2016-07-05T12:24:53.404Z,998.23
2016-07-05T12:25:53.431Z,998.19
2016-07-05T12:26:53.454Z,998.2
2016-07-05T12:27:53.478Z,998.19
2016-07-05T12:28:53.500Z,998.26
2016-07-05T12:29:53.519Z,998.4
2016-07-05T12:30:53.547Z,998.24